sensor_id;sensor_type;location;lat;lon;timestamp;P1;durP1;ratioP1;P2;durP2;ratioP2
41043;SDS011;51680;49.806;18.774;2023-05-10T00:00:09;4.70;;;2.03;;
41043;SDS011;51680;49.806;18.774;2023-05-10T00:03:14;3.75;;;2.00;;
41043;SDS011;51680;49.806;18.774;2023-05-10T00:06:16;4.30;;;2.17;;
41043;SDS011;51680;49.806;18.774;2023-05-10T00:09:18;5.18;;;2.00;;
41043;SDS011;51680;49.806;18.774;2023-05-10T00:12:21;4.13;;;1.98;;
41043;SDS011;51680;49.806;18.774;2023-05-10T00:15:23;6.00;;;2.43;;
41043;SDS011;51680;49.806;18.774;2023-05-10T00:18:24;3.72;;;2.00;;
41043;SDS011;51680;49.806;18.774;2023-05-10T00:21:26;6.72;;;1.95;;
41043;SDS011;51680;49.806;18.774;2023-05-10T00:24:28;5.55;;;1.95;;
41043;SDS011;51680;49.806;18.774;2023-05-10T00:27:31;3.83;;;1.85;;
41043;SDS011;51680;49.806;18.774;2023-05-10T00:30:33;3.73;;;2.20;;
41043;SDS011;51680;49.806;18.774;2023-05-10T00:33:35;6.15;;;2.30;;
41043;SDS011;51680;49.806;18.774;2023-05-10T00:36:37;5.70;;;2.17;;
41043;SDS011;51680;49.806;18.774;2023-05-10T00:39:41;6.20;;;2.13;;
41043;SDS011;51680;49.806;18.774;2023-05-10T00:42:44;5.00;;;2.28;;
41043;SDS011;51680;49.806;18.774;2023-05-10T00:46:04;5.95;;;2.42;;
41043;SDS011;51680;49.806;18.774;2023-05-10T00:49:07;6.65;;;2.00;;
41043;SDS011;51680;49.806;18.774;2023-05-10T00:52:09;4.40;;;2.25;;
41043;SDS011;51680;49.806;18.774;2023-05-10T00:55:11;5.88;;;2.10;;
41043;SDS011;51680;49.806;18.774;2023-05-10T00:58:14;5.18;;;2.00;;
41043;SDS011;51680;49.806;18.774;2023-05-10T01:01:16;3.55;;;1.83;;
41043;SDS011;51680;49.806;18.774;2023-05-10T01:04:18;3.60;;;2.20;;
41043;SDS011;51680;49.806;18.774;2023-05-10T01:07:25;4.35;;;2.25;;
41043;SDS011;51680;49.806;18.774;2023-05-10T01:10:27;4.97;;;2.28;;
41043;SDS011;51680;49.806;18.774;2023-05-10T01:13:33;3.58;;;1.88;;
41043;SDS011;51680;49.806;18.774;2023-05-10T01:16:38;3.42;;;1.85;;
41043;SDS011;51680;49.806;18.774;2023-05-10T01:22:57;3.80;;;2.15;;
41043;SDS011;51680;49.806;18.774;2023-05-10T01:26:23;6.25;;;2.60;;
41043;SDS011;51680;49.806;18.774;2023-05-10T01:29:56;6.28;;;3.00;;
41043;SDS011;51680;49.806;18.774;2023-05-10T01:33:19;6.63;;;3.05;;
41043;SDS011;51680;49.806;18.774;2023-05-10T01:36:30;8.40;;;2.40;;
41043;SDS011;51680;49.806;18.774;2023-05-10T01:39:36;7.55;;;2.42;;
41043;SDS011;51680;49.806;18.774;2023-05-10T01:42:47;6.80;;;3.05;;
41043;SDS011;51680;49.806;18.774;2023-05-10T01:45:57;4.00;;;2.03;;
41043;SDS011;51680;49.806;18.774;2023-05-10T01:49:07;3.92;;;2.00;;
41043;SDS011;51680;49.806;18.774;2023-05-10T01:52:12;5.20;;;2.28;;
41043;SDS011;51680;49.806;18.774;2023-05-10T01:55:18;3.40;;;1.80;;
41043;SDS011;51680;49.806;18.774;2023-05-10T01:58:25;5.65;;;2.25;;
41043;SDS011;51680;49.806;18.774;2023-05-10T02:01:30;3.97;;;2.10;;
41043;SDS011;51680;49.806;18.774;2023-05-10T02:04:34;4.88;;;2.13;;
41043;SDS011;51680;49.806;18.774;2023-05-10T02:07:38;4.28;;;1.98;;
41043;SDS011;51680;49.806;18.774;2023-05-10T02:10:41;4.57;;;2.15;;
41043;SDS011;51680;49.806;18.774;2023-05-10T02:13:44;4.27;;;2.00;;
41043;SDS011;51680;49.806;18.774;2023-05-10T02:16:48;7.65;;;2.50;;
41043;SDS011;51680;49.806;18.774;2023-05-10T02:22:56;6.97;;;2.17;;
41043;SDS011;51680;49.806;18.774;2023-05-10T02:25:59;3.72;;;1.77;;
41043;SDS011;51680;49.806;18.774;2023-05-10T02:29:02;6.25;;;2.05;;
41043;SDS011;51680;49.806;18.774;2023-05-10T02:32:07;4.47;;;2.55;;
41043;SDS011;51680;49.806;18.774;2023-05-10T02:35:14;5.45;;;2.15;;
41043;SDS011;51680;49.806;18.774;2023-05-10T02:38:16;6.85;;;2.50;;
41043;SDS011;51680;49.806;18.774;2023-05-10T02:41:21;6.15;;;1.95;;
41043;SDS011;51680;49.806;18.774;2023-05-10T02:44:25;5.30;;;2.38;;
41043;SDS011;51680;49.806;18.774;2023-05-10T02:47:31;3.50;;;1.98;;
41043;SDS011;51680;49.806;18.774;2023-05-10T02:50:34;4.63;;;2.08;;
41043;SDS011;51680;49.806;18.774;2023-05-10T02:53:38;9.77;;;2.30;;
41043;SDS011;51680;49.806;18.774;2023-05-10T02:56:46;3.70;;;1.92;;
41043;SDS011;51680;49.806;18.774;2023-05-10T02:59:50;2.80;;;1.77;;
41043;SDS011;51680;49.806;18.774;2023-05-10T03:02:52;4.57;;;2.17;;
41043;SDS011;51680;49.806;18.774;2023-05-10T03:05:55;4.00;;;1.92;;
41043;SDS011;51680;49.806;18.774;2023-05-10T03:08:59;6.85;;;2.22;;
41043;SDS011;51680;49.806;18.774;2023-05-10T03:12:02;4.25;;;1.77;;
41043;SDS011;51680;49.806;18.774;2023-05-10T03:15:10;3.67;;;2.25;;
41043;SDS011;51680;49.806;18.774;2023-05-10T03:18:21;4.82;;;2.47;;
41043;SDS011;51680;49.806;18.774;2023-05-10T03:21:25;5.00;;;2.17;;
41043;SDS011;51680;49.806;18.774;2023-05-10T03:24:30;6.72;;;2.40;;
41043;SDS011;51680;49.806;18.774;2023-05-10T03:27:34;6.32;;;2.60;;
41043;SDS011;51680;49.806;18.774;2023-05-10T03:30:37;4.22;;;2.45;;
41043;SDS011;51680;49.806;18.774;2023-05-10T03:33:46;4.00;;;1.95;;
41043;SDS011;51680;49.806;18.774;2023-05-10T03:36:52;4.20;;;2.22;;
41043;SDS011;51680;49.806;18.774;2023-05-10T03:39:54;9.63;;;2.63;;
41043;SDS011;51680;49.806;18.774;2023-05-10T03:42:56;5.60;;;1.83;;
41043;SDS011;51680;49.806;18.774;2023-05-10T03:45:58;3.90;;;2.35;;
41043;SDS011;51680;49.806;18.774;2023-05-10T03:49:00;4.75;;;2.15;;
41043;SDS011;51680;49.806;18.774;2023-05-10T03:52:03;6.35;;;2.20;;
41043;SDS011;51680;49.806;18.774;2023-05-10T03:55:05;4.78;;;2.20;;
41043;SDS011;51680;49.806;18.774;2023-05-10T03:58:10;5.20;;;2.25;;
41043;SDS011;51680;49.806;18.774;2023-05-10T04:01:12;5.00;;;2.55;;
41043;SDS011;51680;49.806;18.774;2023-05-10T04:04:14;4.45;;;2.35;;
41043;SDS011;51680;49.806;18.774;2023-05-10T04:07:17;7.65;;;2.65;;
41043;SDS011;51680;49.806;18.774;2023-05-10T04:10:19;5.38;;;1.95;;
41043;SDS011;51680;49.806;18.774;2023-05-10T04:13:21;4.63;;;2.33;;
41043;SDS011;51680;49.806;18.774;2023-05-10T04:16:23;8.93;;;2.55;;
41043;SDS011;51680;49.806;18.774;2023-05-10T04:19:28;5.63;;;2.30;;
41043;SDS011;51680;49.806;18.774;2023-05-10T04:22:32;5.10;;;2.30;;
41043;SDS011;51680;49.806;18.774;2023-05-10T04:25:34;4.30;;;2.25;;
41043;SDS011;51680;49.806;18.774;2023-05-10T04:28:36;5.13;;;2.20;;
41043;SDS011;51680;49.806;18.774;2023-05-10T04:31:38;6.25;;;2.38;;
41043;SDS011;51680;49.806;18.774;2023-05-10T04:34:39;4.70;;;2.25;;
41043;SDS011;51680;49.806;18.774;2023-05-10T04:37:42;4.78;;;2.15;;
41043;SDS011;51680;49.806;18.774;2023-05-10T04:40:44;8.80;;;2.38;;
41043;SDS011;51680;49.806;18.774;2023-05-10T04:43:46;8.05;;;2.30;;
41043;SDS011;51680;49.806;18.774;2023-05-10T04:46:49;5.97;;;2.67;;
41043;SDS011;51680;49.806;18.774;2023-05-10T04:49:51;6.38;;;2.45;;
41043;SDS011;51680;49.806;18.774;2023-05-10T04:52:54;4.13;;;2.78;;
41043;SDS011;51680;49.806;18.774;2023-05-10T04:55:55;5.65;;;2.53;;
41043;SDS011;51680;49.806;18.774;2023-05-10T04:58:57;4.30;;;2.30;;
41043;SDS011;51680;49.806;18.774;2023-05-10T05:01:59;7.53;;;2.63;;
41043;SDS011;51680;49.806;18.774;2023-05-10T05:05:01;4.38;;;2.42;;
41043;SDS011;51680;49.806;18.774;2023-05-10T05:11:08;4.82;;;2.40;;
41043;SDS011;51680;49.806;18.774;2023-05-10T05:14:09;3.88;;;2.30;;
41043;SDS011;51680;49.806;18.774;2023-05-10T05:17:11;7.28;;;2.53;;
41043;SDS011;51680;49.806;18.774;2023-05-10T05:20:13;4.93;;;2.25;;
41043;SDS011;51680;49.806;18.774;2023-05-10T05:23:16;5.32;;;2.30;;
41043;SDS011;51680;49.806;18.774;2023-05-10T05:26:18;4.50;;;2.35;;
41043;SDS011;51680;49.806;18.774;2023-05-10T05:29:20;7.00;;;2.80;;
41043;SDS011;51680;49.806;18.774;2023-05-10T05:32:22;5.68;;;2.50;;
41043;SDS011;51680;49.806;18.774;2023-05-10T05:35:24;4.65;;;2.33;;
41043;SDS011;51680;49.806;18.774;2023-05-10T05:38:27;3.20;;;1.90;;
41043;SDS011;51680;49.806;18.774;2023-05-10T05:41:29;5.10;;;2.03;;
41043;SDS011;51680;49.806;18.774;2023-05-10T05:44:31;5.20;;;2.28;;
41043;SDS011;51680;49.806;18.774;2023-05-10T05:47:32;3.78;;;2.08;;
41043;SDS011;51680;49.806;18.774;2023-05-10T05:50:34;3.85;;;1.92;;
41043;SDS011;51680;49.806;18.774;2023-05-10T05:53:37;5.25;;;2.10;;
41043;SDS011;51680;49.806;18.774;2023-05-10T05:56:39;3.53;;;2.08;;
41043;SDS011;51680;49.806;18.774;2023-05-10T05:59:41;3.22;;;1.90;;
41043;SDS011;51680;49.806;18.774;2023-05-10T06:02:44;5.15;;;2.40;;
41043;SDS011;51680;49.806;18.774;2023-05-10T06:06:04;3.97;;;2.10;;
41043;SDS011;51680;49.806;18.774;2023-05-10T06:09:08;3.45;;;2.20;;
41043;SDS011;51680;49.806;18.774;2023-05-10T06:12:09;3.60;;;2.13;;
41043;SDS011;51680;49.806;18.774;2023-05-10T06:15:12;6.05;;;1.90;;
41043;SDS011;51680;49.806;18.774;2023-05-10T06:18:14;4.43;;;2.13;;
41043;SDS011;51680;49.806;18.774;2023-05-10T06:21:15;6.68;;;2.05;;
41043;SDS011;51680;49.806;18.774;2023-05-10T06:24:18;3.47;;;1.80;;
41043;SDS011;51680;49.806;18.774;2023-05-10T06:27:20;5.90;;;1.88;;
41043;SDS011;51680;49.806;18.774;2023-05-10T06:30:23;3.80;;;1.70;;
41043;SDS011;51680;49.806;18.774;2023-05-10T06:33:27;4.70;;;1.52;;
41043;SDS011;51680;49.806;18.774;2023-05-10T06:36:29;3.85;;;1.70;;
41043;SDS011;51680;49.806;18.774;2023-05-10T06:39:32;3.70;;;1.92;;
41043;SDS011;51680;49.806;18.774;2023-05-10T06:42:34;2.85;;;1.50;;
41043;SDS011;51680;49.806;18.774;2023-05-10T06:45:36;2.75;;;1.40;;
41043;SDS011;51680;49.806;18.774;2023-05-10T06:48:38;3.40;;;1.52;;
41043;SDS011;51680;49.806;18.774;2023-05-10T06:51:40;4.53;;;2.00;;
41043;SDS011;51680;49.806;18.774;2023-05-10T06:55:02;6.88;;;1.70;;
41043;SDS011;51680;49.806;18.774;2023-05-10T06:58:05;3.60;;;1.30;;
41043;SDS011;51680;49.806;18.774;2023-05-10T07:01:07;4.55;;;1.60;;
41043;SDS011;51680;49.806;18.774;2023-05-10T07:04:09;2.92;;;1.50;;
41043;SDS011;51680;49.806;18.774;2023-05-10T07:07:10;3.55;;;1.58;;
41043;SDS011;51680;49.806;18.774;2023-05-10T07:10:14;5.95;;;1.67;;
41043;SDS011;51680;49.806;18.774;2023-05-10T07:13:15;3.25;;;1.25;;
41043;SDS011;51680;49.806;18.774;2023-05-10T07:16:17;4.05;;;1.90;;
41043;SDS011;51680;49.806;18.774;2023-05-10T07:19:19;4.57;;;1.58;;
41043;SDS011;51680;49.806;18.774;2023-05-10T07:22:21;2.97;;;1.42;;
41043;SDS011;51680;49.806;18.774;2023-05-10T07:25:24;3.28;;;1.58;;
41043;SDS011;51680;49.806;18.774;2023-05-10T07:28:26;1.90;;;1.13;;
41043;SDS011;51680;49.806;18.774;2023-05-10T07:31:28;4.22;;;1.42;;
41043;SDS011;51680;49.806;18.774;2023-05-10T07:34:29;4.18;;;1.77;;
41043;SDS011;51680;49.806;18.774;2023-05-10T07:37:31;5.90;;;1.85;;
41043;SDS011;51680;49.806;18.774;2023-05-10T07:40:34;4.65;;;1.90;;
41043;SDS011;51680;49.806;18.774;2023-05-10T07:43:36;2.85;;;1.85;;
41043;SDS011;51680;49.806;18.774;2023-05-10T07:46:38;3.30;;;2.00;;
41043;SDS011;51680;49.806;18.774;2023-05-10T07:49:40;4.18;;;1.85;;
41043;SDS011;51680;49.806;18.774;2023-05-10T07:52:42;4.30;;;1.80;;
41043;SDS011;51680;49.806;18.774;2023-05-10T07:55:45;3.60;;;1.70;;
41043;SDS011;51680;49.806;18.774;2023-05-10T07:58:52;8.75;;;2.20;;
41043;SDS011;51680;49.806;18.774;2023-05-10T08:01:54;6.70;;;1.95;;
41043;SDS011;51680;49.806;18.774;2023-05-10T08:04:56;3.35;;;1.88;;
41043;SDS011;51680;49.806;18.774;2023-05-10T08:07:58;4.13;;;1.75;;
41043;SDS011;51680;49.806;18.774;2023-05-10T08:11:01;6.15;;;2.00;;
41043;SDS011;51680;49.806;18.774;2023-05-10T08:14:03;1.93;;;1.30;;
41043;SDS011;51680;49.806;18.774;2023-05-10T08:17:05;4.60;;;2.00;;
41043;SDS011;51680;49.806;18.774;2023-05-10T08:20:07;6.53;;;1.90;;
41043;SDS011;51680;49.806;18.774;2023-05-10T08:23:09;5.85;;;1.90;;
41043;SDS011;51680;49.806;18.774;2023-05-10T08:26:12;2.92;;;1.65;;
41043;SDS011;51680;49.806;18.774;2023-05-10T08:29:14;3.03;;;1.50;;
41043;SDS011;51680;49.806;18.774;2023-05-10T08:32:16;5.07;;;2.00;;
41043;SDS011;51680;49.806;18.774;2023-05-10T08:35:18;5.00;;;1.98;;
41043;SDS011;51680;49.806;18.774;2023-05-10T08:38:19;5.53;;;1.80;;
41043;SDS011;51680;49.806;18.774;2023-05-10T08:41:23;5.43;;;1.75;;
41043;SDS011;51680;49.806;18.774;2023-05-10T08:44:26;6.50;;;1.60;;
41043;SDS011;51680;49.806;18.774;2023-05-10T08:47:27;4.60;;;1.70;;
41043;SDS011;51680;49.806;18.774;2023-05-10T08:50:30;3.95;;;1.55;;
41043;SDS011;51680;49.806;18.774;2023-05-10T08:53:33;2.97;;;1.58;;
41043;SDS011;51680;49.806;18.774;2023-05-10T08:56:40;2.38;;;1.40;;
41043;SDS011;51680;49.806;18.774;2023-05-10T08:59:41;2.67;;;1.40;;
41043;SDS011;51680;49.806;18.774;2023-05-10T09:02:43;8.27;;;1.60;;
41043;SDS011;51680;49.806;18.774;2023-05-10T09:05:46;5.82;;;1.42;;
41043;SDS011;51680;49.806;18.774;2023-05-10T09:08:48;6.35;;;1.50;;
41043;SDS011;51680;49.806;18.774;2023-05-10T09:11:51;4.07;;;1.73;;
41043;SDS011;51680;49.806;18.774;2023-05-10T09:14:54;3.00;;;1.50;;
41043;SDS011;51680;49.806;18.774;2023-05-10T09:17:56;2.95;;;1.50;;
41043;SDS011;51680;49.806;18.774;2023-05-10T09:21:01;3.47;;;1.40;;
41043;SDS011;51680;49.806;18.774;2023-05-10T09:24:03;2.35;;;1.38;;
41043;SDS011;51680;49.806;18.774;2023-05-10T09:27:07;4.80;;;1.58;;
41043;SDS011;51680;49.806;18.774;2023-05-10T09:30:10;5.05;;;1.60;;
41043;SDS011;51680;49.806;18.774;2023-05-10T09:33:12;2.60;;;1.35;;
41043;SDS011;51680;49.806;18.774;2023-05-10T09:36:14;4.10;;;1.40;;
41043;SDS011;51680;49.806;18.774;2023-05-10T09:39:17;5.07;;;1.50;;
41043;SDS011;51680;49.806;18.774;2023-05-10T09:42:20;2.00;;;1.10;;
41043;SDS011;51680;49.806;18.774;2023-05-10T09:45:22;2.95;;;1.38;;
41043;SDS011;51680;49.806;18.774;2023-05-10T09:48:25;3.55;;;1.20;;
41043;SDS011;51680;49.806;18.774;2023-05-10T09:51:26;3.22;;;1.40;;
41043;SDS011;51680;49.806;18.774;2023-05-10T09:54:28;4.85;;;1.35;;
41043;SDS011;51680;49.806;18.774;2023-05-10T09:57:31;4.40;;;1.40;;
41043;SDS011;51680;49.806;18.774;2023-05-10T10:00:34;5.80;;;1.50;;
41043;SDS011;51680;49.806;18.774;2023-05-10T10:03:40;2.15;;;1.10;;
41043;SDS011;51680;49.806;18.774;2023-05-10T10:06:43;4.72;;;1.00;;
41043;SDS011;51680;49.806;18.774;2023-05-10T10:09:45;2.85;;;1.17;;
41043;SDS011;51680;49.806;18.774;2023-05-10T10:12:48;3.75;;;1.00;;
41043;SDS011;51680;49.806;18.774;2023-05-10T10:15:50;1.93;;;1.03;;
41043;SDS011;51680;49.806;18.774;2023-05-10T10:18:53;3.07;;;1.50;;
41043;SDS011;51680;49.806;18.774;2023-05-10T10:21:55;3.75;;;2.20;;
41043;SDS011;51680;49.806;18.774;2023-05-10T10:24:57;5.03;;;1.98;;
41043;SDS011;51680;49.806;18.774;2023-05-10T10:28:05;5.53;;;2.50;;
41043;SDS011;51680;49.806;18.774;2023-05-10T10:31:17;5.78;;;2.40;;
41043;SDS011;51680;49.806;18.774;2023-05-10T10:34:28;4.85;;;2.60;;
41043;SDS011;51680;49.806;18.774;2023-05-10T10:37:43;5.30;;;2.90;;
41043;SDS011;51680;49.806;18.774;2023-05-10T10:41:09;4.15;;;2.88;;
41043;SDS011;51680;49.806;18.774;2023-05-10T10:47:39;9.43;;;3.15;;
41043;SDS011;51680;49.806;18.774;2023-05-10T10:50:43;6.28;;;2.50;;
41043;SDS011;51680;49.806;18.774;2023-05-10T10:53:47;8.85;;;2.90;;
41043;SDS011;51680;49.806;18.774;2023-05-10T10:57:03;3.63;;;2.22;;
41043;SDS011;51680;49.806;18.774;2023-05-10T11:00:20;8.77;;;2.47;;
41043;SDS011;51680;49.806;18.774;2023-05-10T11:03:27;5.43;;;2.88;;
41043;SDS011;51680;49.806;18.774;2023-05-10T11:06:29;5.30;;;2.53;;
41043;SDS011;51680;49.806;18.774;2023-05-10T11:09:36;6.07;;;2.75;;
41043;SDS011;51680;49.806;18.774;2023-05-10T11:12:50;5.15;;;2.65;;
41043;SDS011;51680;49.806;18.774;2023-05-10T11:15:54;6.85;;;3.08;;
41043;SDS011;51680;49.806;18.774;2023-05-10T11:18:58;10.43;;;2.50;;
41043;SDS011;51680;49.806;18.774;2023-05-10T11:22:12;12.15;;;2.95;;
41043;SDS011;51680;49.806;18.774;2023-05-10T11:25:15;6.47;;;2.80;;
41043;SDS011;51680;49.806;18.774;2023-05-10T11:28:17;5.93;;;2.45;;
41043;SDS011;51680;49.806;18.774;2023-05-10T11:31:21;5.13;;;2.60;;
41043;SDS011;51680;49.806;18.774;2023-05-10T11:34:27;5.40;;;2.53;;
41043;SDS011;51680;49.806;18.774;2023-05-10T11:37:30;8.55;;;2.50;;
41043;SDS011;51680;49.806;18.774;2023-05-10T11:40:34;4.70;;;2.75;;
41043;SDS011;51680;49.806;18.774;2023-05-10T11:43:36;4.47;;;2.30;;
41043;SDS011;51680;49.806;18.774;2023-05-10T11:46:39;6.30;;;2.00;;
41043;SDS011;51680;49.806;18.774;2023-05-10T11:49:43;4.30;;;2.20;;
41043;SDS011;51680;49.806;18.774;2023-05-10T11:52:45;2.88;;;1.95;;
41043;SDS011;51680;49.806;18.774;2023-05-10T11:55:47;3.67;;;2.20;;
41043;SDS011;51680;49.806;18.774;2023-05-10T11:58:52;6.70;;;2.10;;
41043;SDS011;51680;49.806;18.774;2023-05-10T12:01:57;12.75;;;2.60;;
41043;SDS011;51680;49.806;18.774;2023-05-10T12:04:59;5.00;;;2.10;;
41043;SDS011;51680;49.806;18.774;2023-05-10T12:08:10;6.63;;;2.10;;
41043;SDS011;51680;49.806;18.774;2023-05-10T12:11:13;6.20;;;2.00;;
41043;SDS011;51680;49.806;18.774;2023-05-10T12:14:15;5.10;;;2.15;;
41043;SDS011;51680;49.806;18.774;2023-05-10T12:20:23;5.38;;;2.13;;
41043;SDS011;51680;49.806;18.774;2023-05-10T12:23:28;7.28;;;2.20;;
41043;SDS011;51680;49.806;18.774;2023-05-10T12:26:30;4.90;;;2.10;;
41043;SDS011;51680;49.806;18.774;2023-05-10T12:29:32;4.68;;;2.30;;
41043;SDS011;51680;49.806;18.774;2023-05-10T12:32:58;3.15;;;1.80;;
41043;SDS011;51680;49.806;18.774;2023-05-10T12:36:01;3.80;;;1.80;;
41043;SDS011;51680;49.806;18.774;2023-05-10T12:39:04;3.53;;;2.10;;
41043;SDS011;51680;49.806;18.774;2023-05-10T12:42:06;4.85;;;2.38;;
41043;SDS011;51680;49.806;18.774;2023-05-10T12:45:08;4.68;;;1.70;;
41043;SDS011;51680;49.806;18.774;2023-05-10T12:48:12;3.33;;;1.90;;
41043;SDS011;51680;49.806;18.774;2023-05-10T12:51:13;3.33;;;1.60;;
41043;SDS011;51680;49.806;18.774;2023-05-10T12:54:19;2.88;;;1.73;;
41043;SDS011;51680;49.806;18.774;2023-05-10T12:57:21;4.82;;;1.90;;
41043;SDS011;51680;49.806;18.774;2023-05-10T13:00:22;3.70;;;2.03;;
41043;SDS011;51680;49.806;18.774;2023-05-10T13:03:26;3.60;;;1.90;;
41043;SDS011;51680;49.806;18.774;2023-05-10T13:06:28;5.83;;;1.87;;
41043;SDS011;51680;49.806;18.774;2023-05-10T13:09:29;4.60;;;1.80;;
41043;SDS011;51680;49.806;18.774;2023-05-10T13:12:31;4.50;;;1.98;;
41043;SDS011;51680;49.806;18.774;2023-05-10T13:15:33;5.15;;;1.60;;
41043;SDS011;51680;49.806;18.774;2023-05-10T13:18:37;2.53;;;1.50;;
41043;SDS011;51680;49.806;18.774;2023-05-10T13:21:38;4.80;;;1.10;;
41043;SDS011;51680;49.806;18.774;2023-05-10T13:24:41;2.80;;;1.75;;
41043;SDS011;51680;49.806;18.774;2023-05-10T13:27:43;4.60;;;1.50;;
41043;SDS011;51680;49.806;18.774;2023-05-10T13:30:44;5.10;;;1.63;;
41043;SDS011;51680;49.806;18.774;2023-05-10T13:33:48;5.32;;;1.30;;
41043;SDS011;51680;49.806;18.774;2023-05-10T13:36:50;3.93;;;1.17;;
41043;SDS011;51680;49.806;18.774;2023-05-10T13:39:53;3.42;;;1.10;;
41043;SDS011;51680;49.806;18.774;2023-05-10T13:42:54;1.73;;;0.90;;
41043;SDS011;51680;49.806;18.774;2023-05-10T13:45:56;2.78;;;0.90;;
41043;SDS011;51680;49.806;18.774;2023-05-10T13:48:59;5.57;;;0.90;;
41043;SDS011;51680;49.806;18.774;2023-05-10T13:52:02;2.03;;;1.23;;
41043;SDS011;51680;49.806;18.774;2023-05-10T13:55:07;1.63;;;0.90;;
41043;SDS011;51680;49.806;18.774;2023-05-10T13:58:10;4.03;;;0.95;;
41043;SDS011;51680;49.806;18.774;2023-05-10T14:01:11;4.38;;;0.93;;
41043;SDS011;51680;49.806;18.774;2023-05-10T14:04:15;1.70;;;0.90;;
41043;SDS011;51680;49.806;18.774;2023-05-10T14:07:17;1.55;;;0.90;;
41043;SDS011;51680;49.806;18.774;2023-05-10T14:10:18;3.85;;;1.10;;
41043;SDS011;51680;49.806;18.774;2023-05-10T14:13:21;1.67;;;0.88;;
41043;SDS011;51680;49.806;18.774;2023-05-10T14:16:23;2.08;;;0.93;;
41043;SDS011;51680;49.806;18.774;2023-05-10T14:19:26;3.53;;;1.00;;
41043;SDS011;51680;49.806;18.774;2023-05-10T14:22:30;1.50;;;0.90;;
41043;SDS011;51680;49.806;18.774;2023-05-10T14:25:32;2.42;;;0.90;;
41043;SDS011;51680;49.806;18.774;2023-05-10T14:28:34;1.48;;;1.00;;
41043;SDS011;51680;49.806;18.774;2023-05-10T14:31:36;1.83;;;1.10;;
41043;SDS011;51680;49.806;18.774;2023-05-10T14:34:39;2.83;;;1.40;;
41043;SDS011;51680;49.806;18.774;2023-05-10T14:37:41;6.50;;;1.13;;
41043;SDS011;51680;49.806;18.774;2023-05-10T14:41:02;2.25;;;1.20;;
41043;SDS011;51680;49.806;18.774;2023-05-10T14:44:03;4.10;;;1.20;;
41043;SDS011;51680;49.806;18.774;2023-05-10T14:47:05;3.67;;;1.67;;
41043;SDS011;51680;49.806;18.774;2023-05-10T14:50:09;5.40;;;1.80;;
41043;SDS011;51680;49.806;18.774;2023-05-10T14:56:37;3.08;;;2.03;;
41043;SDS011;51680;49.806;18.774;2023-05-10T14:59:41;3.55;;;2.20;;
41043;SDS011;51680;49.806;18.774;2023-05-10T15:02:45;3.95;;;1.63;;
41043;SDS011;51680;49.806;18.774;2023-05-10T15:05:49;6.55;;;2.08;;
41043;SDS011;51680;49.806;18.774;2023-05-10T15:08:51;5.25;;;2.47;;
41043;SDS011;51680;49.806;18.774;2023-05-10T15:11:53;7.03;;;2.70;;
41043;SDS011;51680;49.806;18.774;2023-05-10T15:14:55;6.90;;;2.50;;
41043;SDS011;51680;49.806;18.774;2023-05-10T15:17:57;5.55;;;3.10;;
41043;SDS011;51680;49.806;18.774;2023-05-10T15:21:00;8.80;;;2.75;;
41043;SDS011;51680;49.806;18.774;2023-05-10T15:24:02;6.30;;;2.50;;
41043;SDS011;51680;49.806;18.774;2023-05-10T15:27:04;7.80;;;2.78;;
41043;SDS011;51680;49.806;18.774;2023-05-10T15:30:06;4.20;;;2.70;;
41043;SDS011;51680;49.806;18.774;2023-05-10T15:33:09;9.18;;;3.00;;
41043;SDS011;51680;49.806;18.774;2023-05-10T15:36:12;6.32;;;3.17;;
41043;SDS011;51680;49.806;18.774;2023-05-10T15:39:14;7.07;;;3.75;;
41043;SDS011;51680;49.806;18.774;2023-05-10T15:42:15;7.80;;;3.33;;
41043;SDS011;51680;49.806;18.774;2023-05-10T15:45:17;8.30;;;3.55;;
41043;SDS011;51680;49.806;18.774;2023-05-10T15:48:19;11.48;;;4.72;;
41043;SDS011;51680;49.806;18.774;2023-05-10T15:51:23;10.13;;;4.97;;
41043;SDS011;51680;49.806;18.774;2023-05-10T15:54:24;19.63;;;5.77;;
41043;SDS011;51680;49.806;18.774;2023-05-10T15:57:26;8.93;;;3.88;;
41043;SDS011;51680;49.806;18.774;2023-05-10T16:00:28;7.47;;;3.80;;
41043;SDS011;51680;49.806;18.774;2023-05-10T16:03:30;8.25;;;3.72;;
41043;SDS011;51680;49.806;18.774;2023-05-10T16:06:33;10.05;;;4.45;;
41043;SDS011;51680;49.806;18.774;2023-05-10T16:09:35;6.65;;;4.10;;
41043;SDS011;51680;49.806;18.774;2023-05-10T16:12:37;9.18;;;4.10;;
41043;SDS011;51680;49.806;18.774;2023-05-10T16:15:39;11.98;;;4.47;;
41043;SDS011;51680;49.806;18.774;2023-05-10T16:18:41;6.72;;;4.30;;
41043;SDS011;51680;49.806;18.774;2023-05-10T16:21:44;9.30;;;3.90;;
41043;SDS011;51680;49.806;18.774;2023-05-10T16:24:46;9.70;;;3.63;;
41043;SDS011;51680;49.806;18.774;2023-05-10T16:27:47;7.07;;;3.95;;
41043;SDS011;51680;49.806;18.774;2023-05-10T16:30:50;6.75;;;3.15;;
41043;SDS011;51680;49.806;18.774;2023-05-10T16:33:52;8.50;;;4.05;;
41043;SDS011;51680;49.806;18.774;2023-05-10T16:36:55;6.95;;;4.03;;
41043;SDS011;51680;49.806;18.774;2023-05-10T16:39:56;8.57;;;3.90;;
41043;SDS011;51680;49.806;18.774;2023-05-10T16:42:58;8.48;;;4.43;;
41043;SDS011;51680;49.806;18.774;2023-05-10T16:46:00;9.40;;;3.70;;
41043;SDS011;51680;49.806;18.774;2023-05-10T16:49:02;9.93;;;4.95;;
41043;SDS011;51680;49.806;18.774;2023-05-10T16:52:05;11.43;;;5.97;;
41043;SDS011;51680;49.806;18.774;2023-05-10T16:55:07;10.47;;;5.10;;
41043;SDS011;51680;49.806;18.774;2023-05-10T16:58:09;8.52;;;4.25;;
41043;SDS011;51680;49.806;18.774;2023-05-10T17:01:11;6.97;;;4.05;;
41043;SDS011;51680;49.806;18.774;2023-05-10T17:04:13;7.90;;;3.65;;
41043;SDS011;51680;49.806;18.774;2023-05-10T17:07:17;6.95;;;3.55;;
41043;SDS011;51680;49.806;18.774;2023-05-10T17:10:18;4.17;;;2.43;;
41043;SDS011;51680;49.806;18.774;2023-05-10T17:13:20;9.77;;;3.53;;
41043;SDS011;51680;49.806;18.774;2023-05-10T17:16:22;7.20;;;3.45;;
41043;SDS011;51680;49.806;18.774;2023-05-10T17:19:24;5.78;;;2.97;;
41043;SDS011;51680;49.806;18.774;2023-05-10T17:22:27;7.80;;;3.30;;
41043;SDS011;51680;49.806;18.774;2023-05-10T17:25:29;7.27;;;2.53;;
41043;SDS011;51680;49.806;18.774;2023-05-10T17:28:31;6.13;;;2.42;;
41043;SDS011;51680;49.806;18.774;2023-05-10T17:31:33;5.28;;;2.42;;
41043;SDS011;51680;49.806;18.774;2023-05-10T17:34:34;8.10;;;2.42;;
41043;SDS011;51680;49.806;18.774;2023-05-10T17:37:38;6.40;;;2.08;;
41043;SDS011;51680;49.806;18.774;2023-05-10T17:43:42;5.35;;;2.10;;
41043;SDS011;51680;49.806;18.774;2023-05-10T17:46:44;4.78;;;1.90;;
41043;SDS011;51680;49.806;18.774;2023-05-10T17:49:45;6.13;;;2.13;;
41043;SDS011;51680;49.806;18.774;2023-05-10T17:52:49;5.18;;;2.28;;
41043;SDS011;51680;49.806;18.774;2023-05-10T17:55:50;5.73;;;2.37;;
41043;SDS011;51680;49.806;18.774;2023-05-10T17:58:53;5.65;;;2.53;;
41043;SDS011;51680;49.806;18.774;2023-05-10T18:01:54;6.63;;;2.30;;
41043;SDS011;51680;49.806;18.774;2023-05-10T18:04:57;5.88;;;2.45;;
41043;SDS011;51680;49.806;18.774;2023-05-10T18:08:02;3.70;;;1.92;;
41043;SDS011;51680;49.806;18.774;2023-05-10T18:11:03;5.07;;;2.30;;
41043;SDS011;51680;49.806;18.774;2023-05-10T18:14:05;3.97;;;2.03;;
41043;SDS011;51680;49.806;18.774;2023-05-10T18:17:07;4.35;;;2.30;;
41043;SDS011;51680;49.806;18.774;2023-05-10T18:20:09;4.57;;;2.28;;
41043;SDS011;51680;49.806;18.774;2023-05-10T18:23:13;7.72;;;2.47;;
41043;SDS011;51680;49.806;18.774;2023-05-10T18:26:15;6.03;;;2.37;;
41043;SDS011;51680;49.806;18.774;2023-05-10T18:29:17;5.78;;;2.05;;